createdAt,value
2023-05-05T00:01:34.931Z,9.48
2023-05-05T00:04:02.140Z,12.20
2023-05-05T00:06:29.412Z,10.48
2023-05-05T00:08:56.573Z,8.82
2023-05-05T00:11:23.876Z,9.60
2023-05-05T00:13:51.626Z,12.15
2023-05-05T00:16:18.916Z,10.98
2023-05-05T00:18:46.124Z,9.20
2023-05-05T00:21:13.317Z,11.88
2023-05-05T00:23:40.456Z,10.32
2023-05-05T00:26:07.591Z,12.93
2023-05-05T00:28:34.742Z,9.80
2023-05-05T00:31:02.278Z,10.40
2023-05-05T00:33:29.467Z,12.30
2023-05-05T00:35:56.606Z,10.68
2023-05-05T00:38:23.758Z,12.52
2023-05-05T00:40:50.899Z,13.38
2023-05-05T00:43:18.092Z,13.57
2023-05-05T00:45:47.737Z,14.05
2023-05-05T00:48:15.224Z,13.50
2023-05-05T00:50:44.625Z,14.90
2023-05-05T00:53:13.105Z,18.58
2023-05-05T00:55:40.485Z,16.38
2023-05-05T00:58:07.923Z,19.42
2023-05-05T01:00:35.090Z,15.52
2023-05-05T01:03:03.245Z,17.55
2023-05-05T01:05:33.845Z,21.23
2023-05-05T01:08:21.275Z,18.17
2023-05-05T01:10:58.289Z,17.23
2023-05-05T01:13:29.167Z,19.00
2023-05-05T01:16:01.394Z,20.20
2023-05-05T01:18:37.970Z,20.17
2023-05-05T01:21:14.740Z,20.13
2023-05-05T01:23:48.761Z,14.98
2023-05-05T01:26:19.058Z,17.08
2023-05-05T01:29:02.127Z,14.27
2023-05-05T01:31:38.354Z,16.55
2023-05-05T01:34:08.205Z,14.68
2023-05-05T01:36:43.494Z,13.65
2023-05-05T01:39:13.359Z,15.30
2023-05-05T01:41:42.526Z,13.38
2023-05-05T01:44:11.495Z,16.80
2023-05-05T01:46:38.609Z,13.68
2023-05-05T01:49:06.721Z,13.98
2023-05-05T01:51:34.184Z,15.65
2023-05-05T01:54:02.658Z,13.63
2023-05-05T01:58:58.182Z,12.32
2023-05-05T02:01:26.671Z,13.50
2023-05-05T02:06:22.029Z,10.73
2023-05-05T02:08:50.381Z,13.73
2023-05-05T02:11:18.230Z,13.80
2023-05-05T02:13:45.759Z,17.42
2023-05-05T02:16:13.952Z,15.90
2023-05-05T02:18:41.947Z,16.98
2023-05-05T02:21:09.120Z,15.35
2023-05-05T02:23:36.435Z,17.40
2023-05-05T02:26:07.041Z,12.13
2023-05-05T02:28:44.488Z,13.07
2023-05-05T02:31:13.066Z,15.20
2023-05-05T02:33:41.053Z,13.30
2023-05-05T02:36:15.289Z,13.25
2023-05-05T02:38:44.006Z,13.20
2023-05-05T02:41:12.638Z,11.90
2023-05-05T02:43:42.034Z,12.85
2023-05-05T02:46:09.336Z,13.57
2023-05-05T02:48:36.600Z,13.20
2023-05-05T02:51:03.760Z,14.02
2023-05-05T02:53:30.962Z,13.38
2023-05-05T02:56:11.521Z,15.93
2023-05-05T02:58:46.590Z,14.30
2023-05-05T03:01:27.550Z,15.38
2023-05-05T03:04:06.757Z,14.27
2023-05-05T03:06:37.272Z,13.88
2023-05-05T03:09:12.284Z,13.68
2023-05-05T03:11:41.407Z,12.65
2023-05-05T03:14:12.777Z,17.08
2023-05-05T03:16:41.731Z,13.90
2023-05-05T03:19:11.304Z,15.20
2023-05-05T03:21:39.096Z,14.52
2023-05-05T03:24:16.561Z,12.93
2023-05-05T03:26:44.104Z,12.95
2023-05-05T03:29:11.211Z,15.13
2023-05-05T03:31:38.614Z,13.45
2023-05-05T03:34:06.154Z,16.17
2023-05-05T03:36:33.553Z,14.25
2023-05-05T03:39:00.780Z,13.63
2023-05-05T03:41:28.435Z,14.60
2023-05-05T03:43:55.561Z,13.93
2023-05-05T03:46:22.710Z,15.38
2023-05-05T03:48:50.024Z,13.48
2023-05-05T03:51:17.133Z,13.85
2023-05-05T03:53:44.261Z,14.40
2023-05-05T03:56:11.397Z,11.77
2023-05-05T03:58:38.553Z,16.58
2023-05-05T04:01:05.850Z,12.00
2023-05-05T04:03:33.065Z,14.43
2023-05-05T04:06:01.155Z,15.25
2023-05-05T04:08:28.485Z,13.77
2023-05-05T04:10:57.364Z,13.65
2023-05-05T04:13:24.956Z,11.50
2023-05-05T04:15:52.291Z,12.05
2023-05-05T04:18:19.423Z,14.07
2023-05-05T04:20:46.817Z,12.32
2023-05-05T04:23:13.936Z,13.50
2023-05-05T04:25:41.405Z,15.05
2023-05-05T04:28:08.635Z,14.85
2023-05-05T04:30:35.737Z,12.80
2023-05-05T04:33:02.936Z,12.57
2023-05-05T04:35:30.054Z,11.90
2023-05-05T04:37:57.259Z,13.07
2023-05-05T04:40:26.142Z,12.38
2023-05-05T04:42:53.349Z,12.48
2023-05-05T04:45:20.536Z,16.13
2023-05-05T04:47:47.723Z,12.45
2023-05-05T04:50:15.079Z,12.38
2023-05-05T04:52:42.266Z,13.32
2023-05-05T04:55:10.666Z,11.13
2023-05-05T05:00:05.424Z,9.07
2023-05-05T05:02:33.236Z,9.77
2023-05-05T05:05:00.552Z,10.00
2023-05-05T05:07:27.677Z,9.52
2023-05-05T05:09:54.866Z,8.65
2023-05-05T05:12:22.088Z,10.55
2023-05-05T05:14:49.273Z,8.23
2023-05-05T05:17:16.432Z,8.77
2023-05-05T05:19:43.601Z,12.38
2023-05-05T05:22:10.716Z,8.50
2023-05-05T05:24:37.814Z,7.65
2023-05-05T05:27:09.804Z,8.82
2023-05-05T05:29:37.395Z,7.75
2023-05-05T05:32:04.621Z,8.60
2023-05-05T05:34:31.745Z,10.05
2023-05-05T05:36:58.877Z,8.88
2023-05-05T05:39:26.217Z,9.98
2023-05-05T05:41:53.590Z,8.50
2023-05-05T05:44:20.728Z,8.60
2023-05-05T05:46:47.898Z,9.95
2023-05-05T05:49:16.357Z,10.73
2023-05-05T05:51:43.588Z,10.80
2023-05-05T05:54:10.736Z,8.57
2023-05-05T05:56:38.091Z,11.60
2023-05-05T05:59:08.056Z,11.43
2023-05-05T06:01:35.561Z,11.27
2023-05-05T06:04:02.792Z,11.18
2023-05-05T06:06:30.072Z,11.32
2023-05-05T06:08:57.284Z,12.35
2023-05-05T06:11:24.415Z,11.10
2023-05-05T06:13:51.673Z,11.35
2023-05-05T06:16:18.854Z,11.38
2023-05-05T06:18:46.008Z,13.80
2023-05-05T06:21:13.500Z,12.02
2023-05-05T06:23:40.678Z,12.32
2023-05-05T06:26:07.784Z,11.60
2023-05-05T06:28:34.889Z,14.45
2023-05-05T06:31:02.106Z,12.00
2023-05-05T06:33:29.464Z,13.07
2023-05-05T06:35:56.599Z,13.88
2023-05-05T06:38:23.792Z,13.00
2023-05-05T06:40:51.191Z,14.48
2023-05-05T06:43:18.529Z,13.02
2023-05-05T06:45:46.148Z,13.02
2023-05-05T06:50:40.831Z,14.55
2023-05-05T06:55:35.170Z,18.52
2023-05-05T06:58:02.547Z,14.65
2023-05-05T07:00:29.787Z,15.93
2023-05-05T07:02:57.041Z,17.88
2023-05-05T07:05:24.189Z,14.10
2023-05-05T07:07:55.045Z,14.23
2023-05-05T07:10:22.711Z,14.48
2023-05-05T07:15:27.361Z,12.65
2023-05-05T07:17:56.554Z,14.10
2023-05-05T07:20:24.315Z,14.38
2023-05-05T07:22:51.676Z,13.15
2023-05-05T07:25:18.889Z,14.35
2023-05-05T07:27:46.018Z,15.27
2023-05-05T07:30:17.314Z,13.05
2023-05-05T07:32:45.925Z,13.90
2023-05-05T07:35:13.338Z,15.52
2023-05-05T07:37:40.498Z,12.68
2023-05-05T07:40:08.148Z,12.48
2023-05-05T07:45:02.674Z,11.75
2023-05-05T07:47:29.983Z,12.63
2023-05-05T07:49:57.411Z,11.82
2023-05-05T07:52:37.401Z,9.57
2023-05-05T07:55:11.833Z,14.27
2023-05-05T07:57:39.311Z,10.45
2023-05-05T08:00:06.932Z,11.95
2023-05-05T08:05:01.529Z,13.05
2023-05-05T08:07:28.685Z,9.77
2023-05-05T08:09:55.830Z,10.32
2023-05-05T08:12:22.974Z,12.60
2023-05-05T08:14:50.191Z,9.70
2023-05-05T08:17:17.339Z,9.45
2023-05-05T08:19:44.448Z,8.95
2023-05-05T08:22:11.630Z,8.52
2023-05-05T08:24:38.759Z,10.38
2023-05-05T08:27:05.898Z,10.45
2023-05-05T08:29:33.017Z,11.43
2023-05-05T08:32:00.237Z,13.10
2023-05-05T08:34:27.635Z,10.45
2023-05-05T08:36:54.756Z,11.98
2023-05-05T08:39:21.968Z,14.32
2023-05-05T08:41:49.182Z,11.80
2023-05-05T08:44:16.380Z,13.68
2023-05-05T08:46:43.588Z,10.75
2023-05-05T08:49:15.942Z,11.18
2023-05-05T08:52:07.348Z,13.38
2023-05-05T08:54:35.961Z,10.35
2023-05-05T08:57:05.460Z,13.57
2023-05-05T08:59:33.500Z,8.05
2023-05-05T09:04:27.938Z,7.80
2023-05-05T09:06:57.905Z,8.48
2023-05-05T09:09:25.153Z,10.43
2023-05-05T09:11:52.935Z,9.95
2023-05-05T09:14:20.126Z,11.10
2023-05-05T09:16:49.606Z,7.78
2023-05-05T09:19:16.929Z,11.20
2023-05-05T09:21:50.120Z,8.45
2023-05-05T09:24:17.456Z,12.95
2023-05-05T09:26:46.834Z,11.00
2023-05-05T09:29:22.099Z,10.25
2023-05-05T09:32:05.965Z,9.80
2023-05-05T09:34:36.590Z,9.85
2023-05-05T09:37:03.876Z,10.25
2023-05-05T09:39:31.033Z,9.98
2023-05-05T09:41:58.529Z,9.65
2023-05-05T09:44:35.716Z,9.90
2023-05-05T09:47:07.205Z,10.60
2023-05-05T09:49:39.499Z,9.43
2023-05-05T09:52:16.548Z,10.90
2023-05-05T09:54:44.518Z,10.50
2023-05-05T09:57:31.681Z,9.18
2023-05-05T10:00:00.039Z,10.57
2023-05-05T10:02:36.681Z,10.30
2023-05-05T10:05:14.129Z,8.35
2023-05-05T10:07:42.617Z,8.52
2023-05-05T10:10:11.714Z,8.40
2023-05-05T10:12:39.155Z,9.50
2023-05-05T10:15:07.274Z,12.55
2023-05-05T10:17:38.306Z,7.95
2023-05-05T10:20:07.723Z,8.05
2023-05-05T10:22:35.960Z,8.52
2023-05-05T10:25:04.607Z,5.60
2023-05-05T10:27:35.197Z,10.07
2023-05-05T10:30:02.315Z,7.18
2023-05-05T10:35:22.544Z,9.48
2023-05-05T10:37:49.752Z,9.38
2023-05-05T10:40:17.857Z,7.75
2023-05-05T10:42:45.044Z,8.57
2023-05-05T10:45:12.324Z,9.20
2023-05-05T10:47:40.467Z,8.05
2023-05-05T10:50:12.519Z,5.95
2023-05-05T10:52:42.444Z,8.23
2023-05-05T10:55:31.493Z,8.55
2023-05-05T10:57:58.600Z,8.30
2023-05-05T11:00:41.327Z,8.13
2023-05-05T11:03:17.728Z,8.52
2023-05-05T11:06:03.394Z,6.68
2023-05-05T11:08:30.942Z,7.15
2023-05-05T11:10:58.097Z,8.27
2023-05-05T11:13:25.616Z,10.05
2023-05-05T11:15:54.317Z,7.70
2023-05-05T11:18:38.036Z,6.60
2023-05-05T11:21:15.653Z,9.25
2023-05-05T11:23:44.189Z,5.82
2023-05-05T11:26:12.402Z,10.32
2023-05-05T11:28:55.878Z,9.43
2023-05-05T11:31:23.231Z,8.52
2023-05-05T11:33:50.586Z,9.02
2023-05-05T11:36:18.797Z,8.85
2023-05-05T11:38:46.128Z,9.90
2023-05-05T11:41:13.658Z,8.55
2023-05-05T11:43:41.824Z,8.35
2023-05-05T11:46:12.871Z,7.93
2023-05-05T11:48:49.754Z,8.77
2023-05-05T11:51:17.719Z,10.07
2023-05-05T11:53:46.012Z,8.23
2023-05-05T11:56:18.850Z,8.15
2023-05-05T11:58:46.739Z,6.03
2023-05-05T12:01:14.923Z,10.05
2023-05-05T12:03:42.357Z,10.52
2023-05-05T12:06:09.763Z,7.65
2023-05-05T12:08:37.378Z,10.13
2023-05-05T12:11:05.348Z,8.20
2023-05-05T12:13:52.038Z,11.73
2023-05-05T12:16:19.905Z,9.10
2023-05-05T12:18:47.120Z,9.95
2023-05-05T12:21:17.083Z,11.15
2023-05-05T12:23:44.283Z,9.90
2023-05-05T12:26:30.698Z,9.20
2023-05-05T12:28:58.653Z,9.68
2023-05-05T12:31:38.268Z,7.97
2023-05-05T12:34:06.344Z,9.30
2023-05-05T12:36:34.046Z,8.20
2023-05-05T12:39:01.280Z,8.93
2023-05-05T12:41:28.632Z,13.55
2023-05-05T12:43:59.544Z,8.20
2023-05-05T12:46:27.278Z,9.65
2023-05-05T12:49:07.393Z,7.50
2023-05-05T12:51:35.987Z,6.50
2023-05-05T12:54:03.332Z,8.00
2023-05-05T12:56:40.838Z,10.38
2023-05-05T12:59:11.855Z,7.40
2023-05-05T13:01:54.457Z,6.22
2023-05-05T13:04:23.065Z,4.88
2023-05-05T13:06:54.019Z,5.75
2023-05-05T13:09:24.662Z,7.40
2023-05-05T13:11:52.675Z,6.95
2023-05-05T13:14:19.822Z,8.55
2023-05-05T13:16:46.973Z,5.82
2023-05-05T13:19:14.175Z,5.32
2023-05-05T13:21:41.897Z,8.75
2023-05-05T13:24:23.639Z,9.13
2023-05-05T13:26:57.083Z,6.40
2023-05-05T13:29:29.575Z,4.65
2023-05-05T13:31:58.736Z,7.50
2023-05-05T13:34:26.025Z,6.70
2023-05-05T13:36:53.249Z,8.55
2023-05-05T13:39:20.444Z,6.07
2023-05-05T13:41:47.753Z,7.85
2023-05-05T13:44:14.962Z,6.57
2023-05-05T13:46:43.071Z,3.15
2023-05-05T13:49:10.506Z,6.65
2023-05-05T13:51:38.982Z,7.75
2023-05-05T13:56:33.955Z,5.80
2023-05-05T13:59:01.274Z,5.10
2023-05-05T14:01:28.581Z,5.63
2023-05-05T14:03:57.634Z,5.60
2023-05-05T14:06:25.969Z,5.95
2023-05-05T14:08:53.395Z,4.50
2023-05-05T14:11:20.797Z,4.32
2023-05-05T14:13:48.174Z,6.55
2023-05-05T14:16:15.607Z,6.82
2023-05-05T14:18:43.042Z,4.93
2023-05-05T14:21:10.672Z,1.77
2023-05-05T14:23:37.907Z,3.92
2023-05-05T14:26:05.268Z,2.40
2023-05-05T14:28:32.472Z,4.65
2023-05-05T14:30:59.667Z,5.15
2023-05-05T14:33:26.913Z,4.15
2023-05-05T14:35:54.198Z,3.03
2023-05-05T14:38:21.659Z,4.72
2023-05-05T14:40:48.934Z,3.20
2023-05-05T14:43:16.179Z,2.00
2023-05-05T14:45:44.330Z,1.70
2023-05-05T14:48:11.701Z,1.90
2023-05-05T14:50:40.661Z,1.02
2023-05-05T14:53:08.239Z,3.75
2023-05-05T14:55:39.878Z,1.65
2023-05-05T15:00:48.760Z,2.17
2023-05-05T15:03:16.332Z,2.58
2023-05-05T15:05:43.529Z,2.15
2023-05-05T15:08:10.837Z,3.30
2023-05-05T15:10:38.096Z,1.98
2023-05-05T15:13:05.512Z,2.58
2023-05-05T15:15:33.332Z,2.35
2023-05-05T15:18:00.585Z,2.30
2023-05-05T15:20:27.943Z,3.30
2023-05-05T15:22:55.180Z,2.50
2023-05-05T15:25:22.696Z,1.88
2023-05-05T15:27:49.915Z,1.15
2023-05-05T15:30:17.113Z,2.53
2023-05-05T15:32:44.285Z,1.55
2023-05-05T15:35:11.419Z,2.17
2023-05-05T15:37:38.532Z,2.72
2023-05-05T15:40:06.008Z,2.50
2023-05-05T15:42:36.193Z,2.92
2023-05-05T15:45:03.627Z,2.05
2023-05-05T15:47:30.917Z,2.75
2023-05-05T15:49:58.249Z,2.75
2023-05-05T15:52:26.865Z,2.67
2023-05-05T15:54:54.032Z,4.65
2023-05-05T15:57:21.538Z,4.70
2023-05-05T15:59:52.020Z,1.83
2023-05-05T16:02:19.815Z,4.03
2023-05-05T16:04:46.987Z,3.95
2023-05-05T16:07:14.311Z,3.72
2023-05-05T16:09:41.538Z,1.90
2023-05-05T16:12:08.720Z,3.70
2023-05-05T16:14:36.028Z,3.15
2023-05-05T16:17:03.331Z,3.72
2023-05-05T16:19:31.175Z,3.28
2023-05-05T16:21:58.434Z,2.67
2023-05-05T16:24:25.626Z,3.88
2023-05-05T16:26:53.324Z,3.92
2023-05-05T16:29:20.724Z,3.63
2023-05-05T16:31:47.942Z,3.30
2023-05-05T16:34:16.548Z,4.78
2023-05-05T16:36:44.458Z,3.65
2023-05-05T16:39:12.005Z,6.55
2023-05-05T16:41:40.867Z,2.85
2023-05-05T16:44:08.072Z,2.95
2023-05-05T16:46:37.282Z,3.58
2023-05-05T16:49:04.949Z,2.90
2023-05-05T16:51:32.116Z,4.40
2023-05-05T16:53:59.432Z,2.95
2023-05-05T16:56:26.664Z,4.13
2023-05-05T16:58:54.164Z,3.15
2023-05-05T17:01:21.370Z,4.85
2023-05-05T17:03:48.754Z,3.28
2023-05-05T17:06:15.917Z,3.30
2023-05-05T17:08:43.153Z,2.53
2023-05-05T17:11:11.853Z,2.75
2023-05-05T17:13:39.142Z,2.65
2023-05-05T17:16:06.827Z,2.28
2023-05-05T17:18:33.980Z,3.88
2023-05-05T17:21:01.399Z,1.98
2023-05-05T17:23:28.629Z,3.15
2023-05-05T17:25:55.798Z,3.40
2023-05-05T17:28:23.064Z,3.45
2023-05-05T17:30:50.223Z,2.22
2023-05-05T17:33:21.253Z,4.10
2023-05-05T17:35:48.768Z,3.28
2023-05-05T17:38:15.931Z,2.72
2023-05-05T17:40:43.225Z,4.85
2023-05-05T17:43:10.384Z,3.67
2023-05-05T17:45:37.672Z,4.05
2023-05-05T17:48:05.129Z,2.90
2023-05-05T17:50:32.338Z,3.20
2023-05-05T17:52:59.562Z,5.13
2023-05-05T17:55:26.792Z,3.22
2023-05-05T17:57:55.852Z,2.55
2023-05-05T18:00:23.018Z,4.57
2023-05-05T18:02:50.420Z,4.80
2023-05-05T18:05:18.148Z,3.17
2023-05-05T18:07:45.542Z,3.75
2023-05-05T18:10:12.782Z,4.35
2023-05-05T18:12:40.211Z,4.00
2023-05-05T18:15:09.148Z,4.68
2023-05-05T18:17:36.660Z,4.22
2023-05-05T18:20:22.896Z,4.53
2023-05-05T18:22:51.789Z,5.93
2023-05-05T18:25:19.195Z,6.32
2023-05-05T18:27:46.523Z,5.38
2023-05-05T18:30:13.888Z,8.70
2023-05-05T18:32:41.102Z,5.32
2023-05-05T18:35:08.704Z,6.45
2023-05-05T18:37:38.154Z,7.40
2023-05-05T18:40:07.377Z,5.57
2023-05-05T18:42:34.696Z,4.63
2023-05-05T18:45:01.997Z,4.63
2023-05-05T18:47:29.480Z,5.53
2023-05-05T18:49:56.949Z,6.80
2023-05-05T18:52:24.130Z,4.40
2023-05-05T18:54:51.311Z,4.05
2023-05-05T18:57:18.477Z,4.75
2023-05-05T18:59:45.811Z,4.45
2023-05-05T19:02:13.006Z,4.95
2023-05-05T19:04:41.367Z,3.92
2023-05-05T19:12:03.779Z,5.35
2023-05-05T19:14:31.188Z,7.38
2023-05-05T19:17:01.719Z,6.65
2023-05-05T19:19:29.002Z,6.45
2023-05-05T19:21:56.818Z,6.50
2023-05-05T19:24:24.106Z,5.72
2023-05-05T19:26:51.303Z,4.63
2023-05-05T19:29:18.462Z,4.90
2023-05-05T19:31:45.731Z,4.85
2023-05-05T19:34:12.923Z,4.53
2023-05-05T19:36:40.164Z,4.43
2023-05-05T19:39:07.352Z,5.22
2023-05-05T19:41:35.490Z,5.80
2023-05-05T19:44:03.047Z,6.80
2023-05-05T19:46:30.351Z,5.85
2023-05-05T19:48:57.590Z,7.53
2023-05-05T19:51:24.758Z,8.05
2023-05-05T19:53:52.032Z,6.63
2023-05-05T19:56:19.231Z,7.30
2023-05-05T19:59:02.711Z,7.68
2023-05-05T20:01:30.074Z,9.25
2023-05-05T20:03:57.492Z,6.78
2023-05-05T20:06:24.936Z,6.15
2023-05-05T20:08:52.657Z,7.20
2023-05-05T20:11:21.203Z,7.68
2023-05-05T20:18:43.000Z,7.07
2023-05-05T20:21:10.200Z,9.05
2023-05-05T20:23:37.741Z,9.15
2023-05-05T20:26:04.970Z,11.75
2023-05-05T20:28:32.510Z,9.35
2023-05-05T20:31:00.789Z,15.38
2023-05-05T20:33:28.992Z,12.15
2023-05-05T20:35:56.285Z,15.38
2023-05-05T20:38:23.504Z,10.55
2023-05-05T20:40:50.997Z,11.35
2023-05-05T20:43:18.348Z,9.15
2023-05-05T20:45:45.692Z,9.88
2023-05-05T20:48:12.906Z,9.48
2023-05-05T20:50:40.680Z,9.57
2023-05-05T20:53:11.519Z,9.48
2023-05-05T20:55:38.703Z,10.27
2023-05-05T20:58:07.412Z,8.50
2023-05-05T21:03:02.857Z,10.50
2023-05-05T21:05:30.853Z,7.82
2023-05-05T21:08:00.473Z,9.57
2023-05-05T21:10:28.954Z,10.25
2023-05-05T21:12:56.303Z,9.18
2023-05-05T21:15:23.657Z,13.55
2023-05-05T21:17:51.233Z,9.65
2023-05-05T21:20:21.550Z,10.75
2023-05-05T21:22:48.794Z,10.10
2023-05-05T21:25:17.011Z,10.63
2023-05-05T21:27:44.557Z,11.82
2023-05-05T21:30:12.186Z,10.27
2023-05-05T21:32:40.099Z,11.02
2023-05-05T21:35:08.552Z,11.32
2023-05-05T21:37:37.044Z,11.68
2023-05-05T21:40:04.370Z,11.48
2023-05-05T21:42:31.568Z,12.23
2023-05-05T21:44:58.712Z,11.85
2023-05-05T21:47:26.135Z,13.00
2023-05-05T21:49:53.352Z,12.00
2023-05-05T21:52:20.757Z,10.60
2023-05-05T21:54:47.929Z,13.65
2023-05-05T21:57:15.124Z,11.23
2023-05-05T21:59:42.320Z,10.98
2023-05-05T22:02:09.497Z,13.48
2023-05-05T22:04:36.780Z,11.48
2023-05-05T22:07:03.904Z,12.70
2023-05-05T22:09:31.047Z,15.13
2023-05-05T22:11:58.221Z,15.15
2023-05-05T22:14:25.719Z,11.98
2023-05-05T22:16:52.916Z,11.65
2023-05-05T22:19:20.054Z,10.88
2023-05-05T22:21:47.149Z,12.55
2023-05-05T22:24:14.395Z,13.43
2023-05-05T22:26:43.353Z,11.35
2023-05-05T22:29:11.838Z,13.75
2023-05-05T22:31:39.111Z,14.23
2023-05-05T22:34:06.401Z,12.25
2023-05-05T22:36:33.548Z,12.38
2023-05-05T22:39:00.983Z,14.90
2023-05-05T22:41:28.162Z,12.15
2023-05-05T22:43:55.367Z,12.40
2023-05-05T22:46:22.560Z,11.48
2023-05-05T22:48:49.720Z,14.63
2023-05-05T22:51:16.949Z,11.75
2023-05-05T22:53:44.226Z,11.35
2023-05-05T22:56:11.505Z,11.63
2023-05-05T22:58:38.704Z,11.48
2023-05-05T23:01:05.893Z,11.02
2023-05-05T23:03:33.178Z,14.57
2023-05-05T23:06:00.573Z,13.43
2023-05-05T23:08:27.738Z,12.63
2023-05-05T23:10:54.950Z,12.90
2023-05-05T23:13:22.151Z,11.38
2023-05-05T23:15:49.365Z,14.60
2023-05-05T23:18:16.549Z,15.13
2023-05-05T23:20:43.677Z,13.60
2023-05-05T23:23:10.867Z,17.23
2023-05-05T23:25:38.037Z,15.20
2023-05-05T23:28:05.355Z,16.13
2023-05-05T23:30:32.724Z,15.85
2023-05-05T23:33:01.198Z,16.10
2023-05-05T23:35:28.605Z,12.48
2023-05-05T23:37:55.886Z,15.55
2023-05-05T23:40:23.088Z,15.02
2023-05-05T23:42:50.361Z,13.23
2023-05-05T23:45:19.348Z,18.15
2023-05-05T23:47:46.838Z,12.70
2023-05-05T23:50:14.074Z,15.43
2023-05-05T23:52:41.805Z,14.35
2023-05-05T23:55:10.378Z,14.32
2023-05-05T23:57:37.930Z,15.75
